Stations météo

Publicité
Nimes/Courbessac, France (7645): Température de l'air & dewpoint: 11.11.2018 20:00:00 - 17.11.2018 20:00:00 (CET)Nimes/Courbessac, France (7645): Température de l'air 5cm: 11.11.2018 20:00:00 - 17.11.2018 20:00:00 (CET)Nimes/Courbessac, France (7645): Température de l'air -20cm: 11.11.2018 20:00:00 - 17.11.2018 20:00:00 (CET)Nimes/Courbessac, France (7645): Vitesse du vent & gusts: 11.11.2018 20:00:00 - 17.11.2018 20:00:00 (CET)Nimes/Courbessac, France (7645): Direction du vent: 11.11.2018 20:00:00 - 17.11.2018 20:00:00 (CET)Nimes/Courbessac, France (7645): reduced air pressure: 11.11.2018 20:00:00 - 17.11.2018 20:00:00 (CET)Nimes/Courbessac, France (7645): Ensoleillement: 11.11.2018 20:00:00 - 17.11.2018 20:00:00 (CET)Nimes/Courbessac, France (7645): Quantités de précipitations: 11.11.2018 20:00:00 - 17.11.2018 20:00:00 (CET)
Date & Time tt [°C] td [°C] tt 5cm [°C] tt -20cm [°C] ff [km/h] ff [knt] fx [km/h] fx [knt] dd ppp [hPa] sd [min] rr [mm]
17.11.2018 20:00:00 8,5 5,4 7,3 14,3 8 4 26 14 NE 1019,7 0 0,0
17.11.2018 19:00:00 8,7 5,4 7,4 14,3 9 5 18 10 N 1019,7 0 0,4
17.11.2018 18:00:00 8,4 5,9 7,6 14,4 10 5 18 10 N 1019,8 0 0,4
17.11.2018 17:00:00 9,1 5,3 8,7 14,4 13 7 37 20 ENE 1019,9 0 0,0
17.11.2018 16:00:00 9,7 5,7 9,3 14,4 14 8 26 14 ENE 1019,9 0 0,0
17.11.2018 15:00:00 10,4 6,2 10,0 14,3 11 6 21 12 ENE 1019,6 0 0,0
17.11.2018 14:00:00 10,9 8,6 9,9 14,3 12 7 19 11 E 1019,8 0 0,4
17.11.2018 13:00:00 10,5 7,7 10,0 14,3 11 6 25 13 ENE 1020,3 0 0,0
17.11.2018 12:00:00 11,1 8,8 10,9 14,3 14 7 21 11 ENE 1020,2 0 0,2
17.11.2018 11:00:00 11,5 9,6 10,8 14,3 9 5 15 8 ENE 1020,6 0 0,0
17.11.2018 10:00:00 11,1 9,4 10,7 14,4 6 3 9 5 ENE 1020,6 0 0,2
17.11.2018 09:00:00 10,9 9,5 9,9 14,4 4 2 9 5 E 1020,5 0 0,0
17.11.2018 08:00:00 10,5 9,3 9,5 14,4 3 2 6 3 NE 1020,2 0 0,0
17.11.2018 07:00:00 11,0 9,4 10,2 14,4 4 2 12 7 N 1020,3 0 0,2
17.11.2018 06:00:00 11,3 9,2 10,8 14,4 5 3 9 5 NNW 1020,5 0 0,0
17.11.2018 05:00:00 11,3 8,9 10,8 14,5 5 3 14 8 NNW 1020,7 0 0,0
17.11.2018 04:00:00 11,1 8,7 10,8 14,5 6 3 16 9 NNW 1021,0 0 0,0
17.11.2018 03:00:00 11,5 9,2 10,2 14,5 7 4 10 6 NNW 1021,6 0 0,0
17.11.2018 02:00:00 10,5 8,8 10,0 14,6 3 1 7 4 NE 1021,8 0 0,0
17.11.2018 01:00:00 10,4 8,5 9,8 14,7 0 0 6 3 N 1022,3 0 0,0
17.11.2018 00:00:00 10,2 8,3 8,2 14,7 4 2 10 5 NNE 1022,3 0 0,0
16.11.2018 23:00:00 9,4 7,7 8,0 14,8 3 2 5 3 ESE 1022,1 0 0,0
16.11.2018 22:00:00 10,9 7,8 9,7 14,8 3 1 15 8 E 1022,0 0 0,0
16.11.2018 21:00:00 11,9 8,6 11,0 14,9 6 3 11 6 N 1022,0 0 0,0
16.11.2018 20:00:00 11,7 9,4 10,4 14,9 5 3 10 5 N 1022,2 0 0,0
16.11.2018 19:00:00 11,5 9,2 9,7 14,9 5 3 8 4 NNW 1022,0 0 0,0
16.11.2018 18:00:00 12,2 9,6 9,6 14,9 3 1 7 4 N 1022,0 0 0,0
16.11.2018 17:00:00 14,9 9,7 12,8 14,9 4 2 11 6 E 1021,6 40 0,0
16.11.2018 16:00:00 17,2 10,3 17,5 14,8 6 3 22 12 N 1021,7 60 0,0
16.11.2018 15:00:00 18,5 10,6 21,3 14,7 8 4 16 9 NNE 1021,8 60 0,0
16.11.2018 14:00:00 17,9 9,8 21,2 14,6 5 3 16 8 ENE 1022,2 60 0,0
16.11.2018 13:00:00 17,0 9,7 17,9 14,5 9 5 19 11 N 1022,8 57 0,0
16.11.2018 12:00:00 16,4 9,8 17,5 14,5 8 4 15 8 ENE 1023,5 60 0,0
16.11.2018 11:00:00 15,3 10,7 15,7 14,5 9 5 15 8 E 1023,9 60 0,0
16.11.2018 10:00:00 13,2 10,7 10,3 14,6 7 4 17 9 ESE 1023,6 60 0,0
16.11.2018 09:00:00 9,9 9,4 6,0 14,7 2 1 4 2 SE 1023,4 55 0,0
16.11.2018 08:00:00 7,3 6,7 5,4 14,9 3 2 6 3 SE 1022,8 0 0,0
16.11.2018 07:00:00 7,6 6,7 5,7 15,0 4 2 7 4 NNE 1022,0 0 0,0
16.11.2018 06:00:00 8,6 8,0 6,3 15,1 0 0 5 3 N 1022,0 0 0,0
16.11.2018 05:00:00 9,5 8,7 7,4 15,2 0 0 11 6 N 1022,1 0 0,0
16.11.2018 04:00:00 9,5 8,9 6,8 15,3 5 3 7 4 N 1022,5 0 0,0
16.11.2018 03:00:00 10,5 9,7 8,8 15,4 4 2 16 9 SSW 1022,8 0 0,0
16.11.2018 02:00:00 10,7 10,2 7,7 15,5 5 3 10 6 N 1023,0 0 0,2
16.11.2018 01:00:00 10,3 9,5 8,1 15,6 0 0 7 4 N 1022,9 0 0,0
16.11.2018 00:00:00 10,2 9,3 7,8 15,7 0 0 6 4 N 1022,7 0 0,0
15.11.2018 23:00:00 10,5 9,1 8,4 15,8 2 1 7 4 NE 1022,5 0 0,0
15.11.2018 22:00:00 11,5 9,7 9,7 15,9 0 0 10 6 N 1022,5 0 0,0
15.11.2018 21:00:00 13,0 10,5 11,2 15,9 6 3 13 7 NNW 1022,4 0 0,0
15.11.2018 20:00:00 13,9 10,9 12,8 15,9 10 5 16 9 N 1022,2 0 0,0
15.11.2018 19:00:00 14,0 11,5 13,0 15,9 10 5 15 8 NNW 1022,2 0 0,0
15.11.2018 18:00:00 14,8 11,9 13,6 15,9 8 5 12 6 N 1022,1 0 0,0
15.11.2018 17:00:00 17,1 11,8 15,6 15,8 5 3 16 8 NNE 1022,1 42 0,0
15.11.2018 16:00:00 19,3 11,8 19,7 15,7 8 4 12 7 E 1022,2 39 0,0
15.11.2018 15:00:00 18,8 11,6 18,9 15,6 3 1 9 5 E 1022,7 10 0,0
15.11.2018 14:00:00 17,7 11,9 18,6 15,5 3 1 9 5 E 1023,3 0 0,0
15.11.2018 13:00:00 17,6 12,1 18,5 15,4 6 3 16 8 E 1023,6 2 0,0
15.11.2018 12:00:00 16,4 11,5 16,3 15,4 9 5 16 9 ENE 1024,1 0 0,0
15.11.2018 11:00:00 15,8 11,6 16,1 15,4 11 6 18 10 ENE 1024,5 0 0,0
15.11.2018 10:00:00 15,9 11,1 16,2 15,5 10 5 16 9 E 1024,0 48 0,0
15.11.2018 09:00:00 15,1 11,3 12,1 15,5 7 4 13 7 ENE 1023,8 43 0,0
15.11.2018 08:00:00 12,6 10,7 11,2 15,5 5 3 11 6 NNE 1023,5 0 0,0
15.11.2018 07:00:00 12,8 10,7 12,0 15,6 8 4 16 9 NE 1023,2 0 0,0
15.11.2018 06:00:00 13,0 11,2 11,9 15,7 10 5 14 8 ENE 1023,2 0 0,0
15.11.2018 05:00:00 13,1 11,3 11,9 15,8 3 2 9 5 NE 1023,5 0 0,0
15.11.2018 04:00:00 12,6 11,2 11,4 15,8 2 1 10 5 N 1023,6 0 0,0
15.11.2018 03:00:00 12,8 11,5 10,7 15,9 4 2 11 6 NE 1024,0 0 0,0
15.11.2018 02:00:00 13,7 12,3 11,7 16,0 7 4 14 7 ENE 1024,0 0 0,0
15.11.2018 01:00:00 12,8 11,9 11,4 16,0 0 0 5 3 N 1024,4 0 0,0
15.11.2018 00:00:00 13,1 11,7 11,2 16,0 0 0 6 3 N 1024,6 0 0,0
14.11.2018 23:00:00 14,0 12,4 12,8 16,1 2 1 6 3 NE 1024,8 0 0,0
14.11.2018 22:00:00 13,7 12,3 12,6 16,1 0 0 7 4 N 1025,1 0 0,0
14.11.2018 21:00:00 13,9 12,1 12,4 16,2 4 2 6 3 NNW 1025,1 0 0,0
14.11.2018 20:00:00 13,1 11,7 12,2 16,2 3 2 6 3 N 1025,3 0 0,0
14.11.2018 19:00:00 14,0 12,0 12,7 16,2 5 3 6 4 NNW 1025,3 0 0,0
14.11.2018 18:00:00 15,4 12,7 13,4 16,1 0 0 6 4 N 1025,1 0 0,0
14.11.2018 17:00:00 17,0 12,9 16,9 16,1 0 0 8 4 N 1025,3 4 0,0
14.11.2018 16:00:00 17,4 12,7 17,4 16,0 6 4 12 6 ENE 1025,6 0 0,0
14.11.2018 15:00:00 18,0 13,1 18,5 15,9 5 3 13 7 NE 1025,6 2 0,0
14.11.2018 14:00:00 18,2 12,9 19,3 15,8 7 4 14 8 E 1025,9 7 0,0
14.11.2018 13:00:00 17,6 12,1 18,4 15,8 9 5 15 8 ENE 1026,4 11 0,0
14.11.2018 12:00:00 16,5 11,6 16,3 15,7 7 4 13 7 NE 1027,1 0 0,0
14.11.2018 11:00:00 15,6 11,6 16,0 15,7 7 4 16 9 NE 1027,7 0 0,0
14.11.2018 10:00:00 15,4 11,2 14,7 15,8 10 5 16 9 NE 1027,7 17 0,0
14.11.2018 09:00:00 13,8 10,6 13,2 15,8 8 4 16 8 NE 1027,6 9 0,0
14.11.2018 08:00:00 13,2 10,4 12,8 15,9 7 4 16 9 NNE 1027,4 0 0,0
14.11.2018 07:00:00 12,9 10,3 12,7 15,9 7 4 13 7 NE 1027,0 0 0,0
14.11.2018 06:00:00 12,8 10,2 12,3 16,0 5 3 12 6 NNE 1027,2 0 0,0
14.11.2018 05:00:00 12,4 10,5 11,8 16,1 0 0 5 3 N 1027,2 0 0,0
14.11.2018 04:00:00 12,2 10,1 10,9 16,2 2 1 9 5 ESE 1027,4 0 0,0
14.11.2018 03:00:00 12,5 9,9 11,2 16,2 2 1 13 7 E 1027,5 0 0,0
14.11.2018 02:00:00 13,2 10,4 12,5 16,3 5 3 10 6 NNE 1027,7 0 0,0
14.11.2018 01:00:00 13,0 10,7 10,3 16,4 3 2 7 4 ENE 1027,9 0 0,0
14.11.2018 00:00:00 12,3 9,7 10,4 16,5 2 1 9 5 ENE 1028,2 0 0,0
13.11.2018 23:00:00 13,7 10,5 11,7 16,5 0 0 16 9 N 1027,9 0 0,0
13.11.2018 22:00:00 15,0 11,0 14,3 16,6 10 5 21 12 N 1028,0 0 0,0
13.11.2018 21:00:00 15,9 11,5 15,2 16,6 10 5 21 11 N 1028,0 0 0,0
13.11.2018 20:00:00 16,3 12,1 15,7 16,6 10 6 18 10 N 1028,0 0 0,0
13.11.2018 19:00:00 16,5 13,4 15,6 16,6 8 4 13 7 N 1027,9 0 0,0
13.11.2018 18:00:00 16,9 13,8 15,8 16,6 7 4 11 6 N 1027,5 0 0,0
13.11.2018 17:00:00 19,2 14,0 17,9 16,5 2 1 6 3 NW 1027,1 40 0,0
13.11.2018 16:00:00 20,9 13,8 21,9 16,3 5 3 8 4 W 1026,9 60 0,0
13.11.2018 15:00:00 21,6 13,8 23,2 16,2 3 2 10 6 S 1026,9 43 0,0
13.11.2018 14:00:00 21,4 13,8 23,2 16,1 4 2 17 9 SSE 1027,1 40 0,0
13.11.2018 13:00:00 20,5 13,2 23,2 16,0 9 5 18 10 S 1027,5 45 0,0
13.11.2018 12:00:00 21,8 13,7 23,3 15,9 9 5 17 9 ESE 1027,7 60 0,0
13.11.2018 11:00:00 19,7 13,4 18,3 15,9 6 3 11 6 E 1028,0 25 0,0
13.11.2018 10:00:00 17,6 13,3 16,5 15,9 5 3 9 5 E 1027,5 0 0,0
13.11.2018 09:00:00 16,0 12,5 14,3 15,9 6 4 12 7 NNW 1026,9 0 0,0
13.11.2018 08:00:00 15,3 12,1 13,7 16,0 2 1 16 9 ESE 1026,4 0 0,0
13.11.2018 07:00:00 15,2 12,1 13,8 16,0 3 2 16 9 N 1025,9 0 0,0
13.11.2018 06:00:00 16,0 12,5 15,1 16,0 7 4 11 6 ENE 1025,4 0 0,0
13.11.2018 05:00:00 15,9 12,8 15,2 16,0 4 2 9 5 NNW 1025,2 0 0,0
13.11.2018 04:00:00 15,7 12,8 15,1 16,1 4 2 10 6 N 1024,8 0 0,0
13.11.2018 03:00:00 15,9 12,8 15,0 16,1 5 3 10 5 NE 1024,8 0 0,0
13.11.2018 02:00:00 16,0 12,7 15,5 16,1 5 3 9 5 E 1024,6 0 0,0
13.11.2018 01:00:00 16,2 12,6 15,4 16,2 3 2 12 6 NNE 1024,5 0 0,0
13.11.2018 00:00:00 16,1 12,6 15,7 16,2 8 4 19 10 ESE 1024,1 0 0,0
12.11.2018 23:00:00 16,3 12,3 15,9 16,2 15 8 34 18 SE 1024,0 0 0,0
12.11.2018 22:00:00 16,4 12,2 16,1 16,2 14 8 26 14 ESE 1023,7 0 0,0
12.11.2018 21:00:00 16,4 12,6 15,9 16,3 13 7 26 14 ESE 1023,4 0 0,0
12.11.2018 20:00:00 16,5 12,3 16,3 16,3 16 9 26 14 SE 1023,2 0 0,0
12.11.2018 19:00:00 17,0 13,3 16,4 16,3 12 7 23 12 SE 1023,2 0 0,0
12.11.2018 18:00:00 17,1 13,6 16,5 16,2 13 7 38 20 SSE 1022,4 0 0,0
12.11.2018 17:00:00 17,9 13,4 17,6 16,2 22 12 40 21 SSE 1022,0 0 0,0
12.11.2018 16:00:00 18,4 13,7 18,6 16,1 24 13 47 25 SSE 1021,7 0 0,0
12.11.2018 15:00:00 19,0 12,7 19,2 16,0 24 13 46 25 SSE 1021,6 0 0,0
12.11.2018 14:00:00 19,0 13,2 19,1 15,9 27 15 54 29 SSE 1021,5 0 0,0
12.11.2018 13:00:00 18,9 14,0 20,1 15,8 27 15 50 27 SSE 1021,6 33 0,0
12.11.2018 12:00:00 19,4 14,6 20,2 15,7 34 18 55 30 SSE 1021,8 39 0,0
12.11.2018 11:00:00 19,4 14,6 20,6 15,7 27 14 51 28 S 1022,0 58 0,0
12.11.2018 10:00:00 19,2 14,9 16,0 15,6 27 14 44 24 SSE 1021,5 36 0,0
12.11.2018 09:00:00 16,5 14,9 15,5 15,6 23 12 49 26 SSE 1021,4 5 0,4
12.11.2018 08:00:00 16,9 14,4 16,5 15,6 24 13 37 20 SSE 1020,6 0 0,0
12.11.2018 07:00:00 17,0 14,5 16,8 15,6 24 13 43 23 SSE 1020,1 0 0,0
12.11.2018 06:00:00 17,2 14,8 17,0 15,6 22 12 49 27 SSE 1019,2 0 0,0
12.11.2018 05:00:00 17,2 14,8 16,8 15,6 21 11 40 22 SSE 1018,9 0 0,0
12.11.2018 04:00:00 17,0 14,8 16,8 15,6 21 12 42 23 SE 1018,8 0 0,0
12.11.2018 03:00:00 17,2 15,0 16,7 15,6 20 11 49 26 SSE 1018,7 0 0,0
12.11.2018 02:00:00 17,2 14,7 16,2 15,6 27 15 46 25 SSE 1018,4 0 0,0
12.11.2018 01:00:00 16,6 14,2 15,7 15,6 15 8 27 14 SE 1018,8 0 0,0
12.11.2018 00:00:00 16,1 14,3 15,6 15,6 15 8 25 14 SE 1018,8 0 0,0
11.11.2018 23:00:00 16,2 13,7 16,0 15,6 17 9 35 19 ESE 1018,8 0 0,0
11.11.2018 22:00:00 17,2 15,0 16,8 15,5 22 12 42 23 SE 1018,4 0 0,0
11.11.2018 21:00:00 17,3 14,9 17,0 15,6 27 15 44 24 SE 1018,1 0 0,0
11.11.2018 20:00:00 17,3 14,6 16,8 15,5 26 14 41 22 SE 1017,7 0 0,0

tt = Température de l'air
td = dewpoint
tt 5cm = Température de l'air 5cm
tt -20cm = Température de l'air -20cm
ff = Vitesse du vent
fx = gusts
dd = Direction du vent
ppp = reduced air pressure
sd = Ensoleillement
rr = Quantités de précipitations

stations d'obs. à proximité